createdAt,value
2018-04-15T00:01:07.019Z,11.20
2018-04-15T00:03:34.618Z,11.10
2018-04-15T00:06:02.175Z,11.00
2018-04-15T00:08:29.666Z,10.90
2018-04-15T00:10:57.185Z,11.00
2018-04-15T00:13:25.440Z,11.00
2018-04-15T00:15:52.932Z,10.90
2018-04-15T00:18:20.430Z,10.90
2018-04-15T00:20:47.931Z,10.90
2018-04-15T00:23:16.303Z,10.70
2018-04-15T00:25:44.568Z,10.70
2018-04-15T00:28:12.859Z,10.60
2018-04-15T00:30:40.342Z,10.60
2018-04-15T00:33:07.844Z,10.50
2018-04-15T00:35:35.337Z,10.60
2018-04-15T00:38:02.826Z,10.50
2018-04-15T00:40:30.311Z,10.40
2018-04-15T00:42:57.904Z,10.40
2018-04-15T00:45:25.459Z,10.30
2018-04-15T00:47:52.971Z,10.20
2018-04-15T00:50:20.476Z,10.20
2018-04-15T00:52:48.037Z,10.20
2018-04-15T00:55:15.569Z,10.10
2018-04-15T00:57:43.853Z,10.00
2018-04-15T01:00:11.438Z,9.90
2018-04-15T01:02:38.944Z,9.90
2018-04-15T01:05:06.452Z,9.90
2018-04-15T01:07:33.944Z,9.90
2018-04-15T01:10:01.448Z,9.90
2018-04-15T01:12:29.023Z,9.90
2018-04-15T01:14:56.555Z,9.90
2018-04-15T01:17:24.798Z,9.80
2018-04-15T01:19:52.396Z,9.70
2018-04-15T01:22:19.882Z,9.70
2018-04-15T01:24:47.370Z,9.60
2018-04-15T01:27:14.960Z,9.50
2018-04-15T01:29:43.197Z,9.50
2018-04-15T01:32:11.371Z,9.40
2018-04-15T01:34:38.957Z,9.50
2018-04-15T01:37:07.210Z,9.70
2018-04-15T01:39:34.700Z,9.60
2018-04-15T01:42:02.249Z,9.60
2018-04-15T01:44:30.486Z,9.50
2018-04-15T01:46:57.991Z,9.50
2018-04-15T01:49:25.534Z,9.50
2018-04-15T01:51:53.784Z,9.50
2018-04-15T01:54:21.288Z,9.40
2018-04-15T01:56:48.823Z,9.40
2018-04-15T01:59:18.946Z,9.20
2018-04-15T02:01:47.234Z,9.30
2018-04-15T02:04:14.782Z,9.20
2018-04-15T02:06:43.051Z,9.50
2018-04-15T02:09:11.309Z,9.40
2018-04-15T02:11:39.563Z,9.30
2018-04-15T02:14:07.060Z,9.30
2018-04-15T02:16:35.319Z,9.20
2018-04-15T02:19:03.567Z,9.20
2018-04-15T02:21:31.175Z,9.20
2018-04-15T02:23:58.667Z,9.20
2018-04-15T02:26:26.180Z,9.20
2018-04-15T02:28:54.443Z,9.20
2018-04-15T02:31:22.682Z,9.20
2018-04-15T02:33:50.200Z,9.10
2018-04-15T02:36:17.749Z,9.20
2018-04-15T02:38:45.239Z,9.20
2018-04-15T02:41:12.739Z,9.10
2018-04-15T02:43:41.001Z,9.10
2018-04-15T02:46:08.544Z,9.00
2018-04-15T02:48:36.039Z,9.00
2018-04-15T02:51:04.285Z,9.00
2018-04-15T02:53:31.776Z,8.90
2018-04-15T02:55:59.282Z,8.90
2018-04-15T02:58:26.781Z,8.90
2018-04-15T03:00:55.064Z,8.80
2018-04-15T03:03:22.552Z,8.80
2018-04-15T03:05:50.053Z,8.80
2018-04-15T03:08:17.635Z,8.80
2018-04-15T03:10:45.133Z,8.80
2018-04-15T03:13:12.638Z,8.80
2018-04-15T03:15:40.930Z,8.60
2018-04-15T03:18:08.469Z,8.50
2018-04-15T03:20:36.756Z,8.50
2018-04-15T03:23:04.263Z,8.40
2018-04-15T03:25:31.767Z,8.50
2018-04-15T03:28:00.011Z,8.50
2018-04-15T03:30:27.589Z,8.40
2018-04-15T03:32:55.883Z,8.50
2018-04-15T03:35:23.367Z,8.40
2018-04-15T03:37:50.992Z,8.40
2018-04-15T03:40:18.468Z,8.40
2018-04-15T03:42:45.998Z,8.50
2018-04-15T03:45:14.384Z,8.60
2018-04-15T03:47:41.939Z,8.50
2018-04-15T03:50:09.444Z,8.70
2018-04-15T03:52:36.933Z,8.70
2018-04-15T03:55:05.191Z,8.40
2018-04-15T03:57:32.691Z,8.30
2018-04-15T04:00:00.238Z,8.50
2018-04-15T04:02:28.495Z,8.50
2018-04-15T04:04:56.757Z,8.40
2018-04-15T04:07:24.243Z,8.30
2018-04-15T04:09:52.620Z,8.40
2018-04-15T04:12:20.886Z,8.30
2018-04-15T04:14:49.147Z,8.40
2018-04-15T04:17:16.627Z,8.30
2018-04-15T04:19:56.172Z,8.40
2018-04-15T04:22:35.500Z,8.40
2018-04-15T04:28:03.627Z,8.50
2018-04-15T04:30:31.123Z,8.40
2018-04-15T04:32:58.611Z,8.50
2018-04-15T04:35:26.091Z,8.40
2018-04-15T04:37:53.578Z,8.40
2018-04-15T04:40:21.166Z,8.40
2018-04-15T04:42:49.432Z,8.30
2018-04-15T04:45:17.692Z,8.30
2018-04-15T04:47:45.204Z,8.30
2018-04-15T04:50:12.735Z,8.40
2018-04-15T04:52:41.012Z,8.50
2018-04-15T04:55:08.566Z,8.40
2018-04-15T04:57:36.829Z,8.60
2018-04-15T05:00:05.122Z,8.60
2018-04-15T05:02:32.598Z,8.50
2018-04-15T05:05:00.087Z,8.70
2018-04-15T05:07:27.561Z,8.80
2018-04-15T05:09:55.155Z,8.80
2018-04-15T05:12:22.704Z,8.90
2018-04-15T05:14:50.206Z,9.00
2018-04-15T05:17:17.694Z,9.00
2018-04-15T05:19:45.956Z,9.10
2018-04-15T05:22:13.442Z,9.00
2018-04-15T05:24:41.706Z,9.10
2018-04-15T05:27:09.962Z,9.20
2018-04-15T05:29:37.447Z,9.10
2018-04-15T05:32:05.724Z,9.20
2018-04-15T05:34:33.212Z,9.10
2018-04-15T05:37:00.720Z,9.20
2018-04-15T05:39:29.012Z,9.30
2018-04-15T05:41:56.508Z,9.30
2018-04-15T05:44:24.004Z,9.40
2018-04-15T05:46:52.245Z,9.40
2018-04-15T05:49:19.859Z,9.40
2018-04-15T05:51:47.389Z,9.50
2018-04-15T05:54:14.882Z,9.60
2018-04-15T05:56:42.387Z,9.70
2018-04-15T05:59:09.873Z,9.90
2018-04-15T06:01:38.155Z,10.00
2018-04-15T06:04:06.427Z,10.00
2018-04-15T06:06:34.684Z,10.10
2018-04-15T06:09:02.161Z,10.00
2018-04-15T06:11:30.431Z,10.30
2018-04-15T06:13:58.816Z,10.30
2018-04-15T06:16:26.335Z,10.30
2018-04-15T06:18:53.818Z,10.40
2018-04-15T06:21:22.076Z,10.80
2018-04-15T06:23:49.587Z,10.70
2018-04-15T06:26:17.250Z,11.00
2018-04-15T06:28:44.730Z,11.20
2018-04-15T06:31:12.219Z,11.10
2018-04-15T06:33:40.475Z,12.00
2018-04-15T06:36:07.999Z,12.00
2018-04-15T06:38:35.539Z,12.40
2018-04-15T06:41:03.084Z,12.50
2018-04-15T06:43:30.576Z,12.80
2018-04-15T06:45:58.078Z,13.30
2018-04-15T06:48:26.332Z,14.10
2018-04-15T06:50:53.832Z,14.00
2018-04-15T06:53:21.362Z,14.30
2018-04-15T06:55:49.706Z,14.00
2018-04-15T06:58:17.161Z,14.00
2018-04-15T07:00:44.682Z,14.10
2018-04-15T07:03:12.218Z,14.50
2018-04-15T07:05:40.494Z,15.10
2018-04-15T07:08:08.761Z,15.40
2018-04-15T07:10:37.051Z,15.90
2018-04-15T07:13:04.530Z,15.90
2018-04-15T07:15:32.034Z,16.50
2018-04-15T07:17:59.518Z,16.60
2018-04-15T07:20:27.073Z,16.90
2018-04-15T07:22:54.561Z,17.70
2018-04-15T07:25:22.051Z,18.40
2018-04-15T07:27:49.548Z,19.00
2018-04-15T07:30:17.105Z,19.30
2018-04-15T07:32:44.585Z,19.50
2018-04-15T07:35:12.091Z,19.20
2018-04-15T07:37:39.590Z,19.40
2018-04-15T07:40:07.156Z,19.70
2018-04-15T07:42:34.667Z,19.60
2018-04-15T07:45:02.167Z,20.10
2018-04-15T07:47:29.800Z,20.60
2018-04-15T07:49:58.049Z,20.70
2018-04-15T07:52:25.636Z,20.60
2018-04-15T07:54:53.139Z,20.30
2018-04-15T07:57:20.622Z,20.40
2018-04-15T07:59:48.129Z,21.10
2018-04-15T08:02:15.622Z,21.40
2018-04-15T08:04:43.935Z,22.10
2018-04-15T08:07:11.412Z,22.00
2018-04-15T08:09:38.905Z,21.70
2018-04-15T08:12:06.418Z,21.60
2018-04-15T08:14:33.914Z,21.30
2018-04-15T08:17:01.521Z,21.50
2018-04-15T08:19:29.041Z,21.50
2018-04-15T08:21:56.640Z,21.30
2018-04-15T08:24:24.155Z,21.50
2018-04-15T08:26:51.646Z,21.30
2018-04-15T08:29:19.919Z,20.80
2018-04-15T08:31:48.174Z,20.50
2018-04-15T08:34:15.671Z,20.40
2018-04-15T08:36:43.171Z,20.00
2018-04-15T08:39:10.669Z,19.70
2018-04-15T08:41:38.251Z,19.30
2018-04-15T08:44:05.748Z,19.20
2018-04-15T08:46:34.040Z,19.10
2018-04-15T08:49:02.322Z,19.40
2018-04-15T08:51:30.584Z,19.40
2018-04-15T08:53:58.839Z,19.20
2018-04-15T08:56:26.330Z,19.20
2018-04-15T08:58:54.736Z,19.80
2018-04-15T09:01:22.236Z,19.70
2018-04-15T09:03:49.717Z,20.20
2018-04-15T09:06:18.001Z,20.60
2018-04-15T09:08:45.483Z,20.50
2018-04-15T09:11:13.007Z,20.70
2018-04-15T09:13:41.274Z,21.60
2018-04-15T09:16:09.563Z,22.10
2018-04-15T09:18:37.120Z,22.10
2018-04-15T09:21:04.684Z,22.30
2018-04-15T09:23:32.185Z,21.50
2018-04-15T09:25:59.709Z,21.50
2018-04-15T09:28:27.262Z,21.50
2018-04-15T09:31:00.548Z,21.70
2018-04-15T09:33:28.085Z,22.30
2018-04-15T09:35:56.371Z,22.20
2018-04-15T09:38:23.885Z,22.20
2018-04-15T09:40:51.481Z,22.10
2018-04-15T09:43:19.753Z,21.50
2018-04-15T09:45:48.035Z,20.90
2018-04-15T09:48:16.313Z,20.20
2018-04-15T09:50:43.851Z,20.20
2018-04-15T09:53:12.121Z,20.00
2018-04-15T09:55:39.719Z,19.90
2018-04-15T09:58:07.256Z,20.30
2018-04-15T10:00:35.516Z,20.40
2018-04-15T10:03:03.807Z,20.10
2018-04-15T10:05:31.306Z,20.10
2018-04-15T10:07:58.791Z,20.40
2018-04-15T10:10:26.366Z,20.80
2018-04-15T10:12:54.632Z,21.50
2018-04-15T10:15:22.902Z,21.60
2018-04-15T10:17:50.401Z,21.50
2018-04-15T10:20:17.923Z,21.70
2018-04-15T10:22:46.216Z,21.60
2018-04-15T10:25:13.718Z,21.50
2018-04-15T10:27:41.220Z,21.70
2018-04-15T10:30:09.522Z,20.80
2018-04-15T10:32:37.051Z,20.80
2018-04-15T10:35:05.304Z,20.60
2018-04-15T10:37:32.800Z,20.50
2018-04-15T10:40:00.348Z,20.30
2018-04-15T10:42:28.661Z,20.70
2018-04-15T10:44:56.284Z,20.60
2018-04-15T10:47:23.851Z,20.50
2018-04-15T10:49:51.409Z,20.40
2018-04-15T10:52:18.925Z,20.20
2018-04-15T10:54:46.474Z,20.40
2018-04-15T10:57:14.007Z,20.60
2018-04-15T10:59:41.554Z,20.80
2018-04-15T11:02:09.037Z,20.90
2018-04-15T11:04:36.554Z,21.00
2018-04-15T11:07:04.070Z,20.90
2018-04-15T11:09:32.346Z,20.50
2018-04-15T11:12:00.635Z,20.50
2018-04-15T11:14:28.916Z,20.50
2018-04-15T11:16:56.415Z,20.50
2018-04-15T11:19:23.914Z,20.50
2018-04-15T11:21:52.165Z,20.10
2018-04-15T11:24:19.760Z,20.00
2018-04-15T11:26:47.306Z,19.70
2018-04-15T11:29:14.789Z,19.60
2018-04-15T11:31:42.288Z,19.70
2018-04-15T11:34:09.826Z,19.80
2018-04-15T11:36:37.408Z,19.90
2018-04-15T11:39:06.531Z,20.00
2018-04-15T11:41:34.779Z,20.10
2018-04-15T11:44:02.270Z,20.10
2018-04-15T11:46:29.792Z,20.00
2018-04-15T11:48:58.049Z,20.00
2018-04-15T11:51:25.584Z,19.90
2018-04-15T11:53:53.055Z,20.30
2018-04-15T11:56:20.575Z,20.40
2018-04-15T11:58:48.083Z,20.40
2018-04-15T12:01:15.604Z,20.70
2018-04-15T12:03:43.217Z,20.80
2018-04-15T12:06:11.529Z,20.70
2018-04-15T12:08:39.052Z,20.70
2018-04-15T12:11:07.346Z,21.00
2018-04-15T12:13:34.852Z,21.00
2018-04-15T12:16:02.464Z,21.30
2018-04-15T12:18:29.958Z,21.30
2018-04-15T12:20:57.648Z,20.50
2018-04-15T12:23:25.919Z,20.40
2018-04-15T12:25:53.507Z,20.30
2018-04-15T12:28:21.784Z,20.90
2018-04-15T12:30:49.338Z,20.90
2018-04-15T12:33:17.614Z,21.10
2018-04-15T12:35:45.207Z,21.10
2018-04-15T12:38:12.701Z,21.20
2018-04-15T12:40:40.199Z,21.00
2018-04-15T12:43:07.692Z,21.40
2018-04-15T12:45:35.200Z,20.50
2018-04-15T12:48:02.748Z,19.90
2018-04-15T12:50:31.001Z,20.50
2018-04-15T12:52:58.591Z,20.50
2018-04-15T12:55:26.148Z,20.50
2018-04-15T12:57:53.670Z,20.50
2018-04-15T13:00:21.154Z,20.60
2018-04-15T13:02:49.539Z,20.90
2018-04-15T13:05:17.100Z,20.90
2018-04-15T13:07:44.582Z,20.60
2018-04-15T13:10:12.082Z,20.40
2018-04-15T13:12:39.580Z,20.20
2018-04-15T13:15:07.171Z,20.50
2018-04-15T13:17:34.665Z,20.50
2018-04-15T13:20:02.946Z,20.30
2018-04-15T13:22:31.256Z,20.50
2018-04-15T13:24:58.755Z,20.50
2018-04-15T13:27:26.344Z,20.80
2018-04-15T13:29:53.904Z,20.20
2018-04-15T13:32:21.426Z,20.10
2018-04-15T13:34:48.954Z,20.10
2018-04-15T13:37:16.451Z,20.30
2018-04-15T13:39:44.726Z,20.50
2018-04-15T13:42:12.992Z,20.30
2018-04-15T13:44:40.526Z,20.20
2018-04-15T13:47:08.004Z,20.40
2018-04-15T13:49:35.489Z,20.40
2018-04-15T13:52:03.753Z,19.90
2018-04-15T13:54:32.014Z,20.10
2018-04-15T13:56:59.530Z,20.00
2018-04-15T13:59:27.053Z,19.70
2018-04-15T14:01:54.605Z,19.50
2018-04-15T14:04:22.897Z,20.10
2018-04-15T14:06:50.440Z,20.10
2018-04-15T14:09:17.932Z,19.80
2018-04-15T14:11:45.473Z,19.70
2018-04-15T14:14:13.012Z,19.60
2018-04-15T14:16:40.514Z,19.40
2018-04-15T14:19:08.033Z,19.30
2018-04-15T14:21:35.524Z,19.50
2018-04-15T14:24:03.058Z,19.40
2018-04-15T14:26:30.548Z,19.60
2018-04-15T14:28:58.152Z,19.60
2018-04-15T14:31:26.402Z,19.60
2018-04-15T14:33:54.987Z,19.50
2018-04-15T14:36:22.576Z,19.80
2018-04-15T14:38:50.118Z,19.90
2018-04-15T14:41:18.426Z,20.00
2018-04-15T14:43:46.895Z,19.90
2018-04-15T14:46:14.418Z,19.30
2018-04-15T14:48:42.682Z,19.50
2018-04-15T14:51:10.279Z,19.50
2018-04-15T14:53:37.758Z,19.50
2018-04-15T14:56:05.279Z,19.50
2018-04-15T14:58:32.750Z,19.30
2018-04-15T15:01:00.245Z,19.30
2018-04-15T15:03:27.859Z,19.40
2018-04-15T15:05:55.361Z,19.10
2018-04-15T15:08:22.886Z,19.30
2018-04-15T15:10:50.412Z,19.50
2018-04-15T15:13:18.678Z,19.50
2018-04-15T15:15:46.946Z,19.20
2018-04-15T15:18:14.536Z,19.10
2018-04-15T15:20:42.052Z,19.10
2018-04-15T15:23:09.767Z,19.20
2018-04-15T15:25:37.254Z,18.90
2018-04-15T15:28:04.754Z,19.00
2018-04-15T15:30:33.253Z,19.00
2018-04-15T15:33:00.772Z,19.00
2018-04-15T15:35:29.155Z,18.50
2018-04-15T15:37:58.062Z,18.40
2018-04-15T15:40:25.811Z,18.40
2018-04-15T15:42:54.122Z,18.40
2018-04-15T15:45:21.670Z,18.30
2018-04-15T15:47:49.175Z,18.40
2018-04-15T15:50:16.688Z,18.40
2018-04-15T15:52:44.196Z,18.50
2018-04-15T15:55:11.684Z,18.60
2018-04-15T15:57:39.175Z,18.40
2018-04-15T16:00:07.458Z,18.30
2018-04-15T16:02:34.962Z,18.30
2018-04-15T16:05:03.222Z,18.30
2018-04-15T16:07:31.494Z,18.20
2018-04-15T16:09:59.741Z,18.20
2018-04-15T16:12:27.233Z,18.20
2018-04-15T16:14:55.510Z,18.40
2018-04-15T16:17:23.787Z,18.50
2018-04-15T16:19:52.172Z,18.50
2018-04-15T16:22:19.680Z,18.50
2018-04-15T16:24:47.198Z,18.50
2018-04-15T16:27:14.677Z,18.40
2018-04-15T16:29:42.220Z,18.50
2018-04-15T16:32:09.722Z,18.50
2018-04-15T16:34:37.264Z,18.30
2018-04-15T16:37:04.886Z,18.20
2018-04-15T16:39:32.414Z,18.00
2018-04-15T16:42:00.685Z,17.80
2018-04-15T16:44:28.938Z,17.70
2018-04-15T16:46:56.461Z,17.70
2018-04-15T16:49:23.960Z,17.90
2018-04-15T16:51:52.252Z,17.80
2018-04-15T16:54:20.683Z,17.60
2018-04-15T16:56:48.186Z,17.60
2018-04-15T16:59:15.686Z,17.60
2018-04-15T17:01:43.191Z,17.60
2018-04-15T17:04:11.473Z,17.70
2018-04-15T17:06:39.822Z,17.80
2018-04-15T17:09:07.330Z,17.70
2018-04-15T17:11:34.818Z,17.90
2018-04-15T17:14:02.330Z,18.00
2018-04-15T17:16:29.839Z,18.20
2018-04-15T17:18:58.167Z,18.30
2018-04-15T17:21:25.724Z,18.30
2018-04-15T17:23:53.203Z,18.20
2018-04-15T17:26:20.692Z,18.00
2018-04-15T17:28:48.204Z,18.00
2018-04-15T17:31:15.701Z,18.10
2018-04-15T17:33:43.237Z,18.10
2018-04-15T17:36:10.729Z,18.00
2018-04-15T17:38:38.234Z,17.90
2018-04-15T17:41:05.761Z,17.90
2018-04-15T17:43:34.025Z,17.70
2018-04-15T17:46:01.625Z,17.70
2018-04-15T17:48:29.340Z,17.70
2018-04-15T17:50:56.833Z,17.80
2018-04-15T17:53:24.330Z,17.80
2018-04-15T17:55:51.825Z,17.80
2018-04-15T17:58:20.096Z,17.70
2018-04-15T18:00:48.384Z,17.70
2018-04-15T18:03:15.890Z,17.60
2018-04-15T18:05:43.399Z,17.70
2018-04-15T18:08:10.910Z,17.70
2018-04-15T18:10:38.389Z,17.50
2018-04-15T18:13:06.005Z,17.50
2018-04-15T18:15:33.498Z,17.30
2018-04-15T18:18:01.000Z,17.50
2018-04-15T18:20:28.567Z,17.60
2018-04-15T18:22:56.219Z,17.60
2018-04-15T18:25:23.985Z,17.60
2018-04-15T18:27:51.499Z,17.60
2018-04-15T18:30:19.048Z,17.50
2018-04-15T18:32:46.533Z,17.50
2018-04-15T18:35:14.021Z,17.40
2018-04-15T18:37:41.568Z,17.40
2018-04-15T18:40:09.153Z,17.40
2018-04-15T18:42:36.664Z,17.30
2018-04-15T18:45:04.166Z,17.30
2018-04-15T18:47:41.691Z,17.30
2018-04-15T18:50:09.990Z,17.20
2018-04-15T18:52:37.520Z,17.10
2018-04-15T18:55:05.796Z,17.10
2018-04-15T18:57:34.082Z,17.10
2018-04-15T19:00:02.397Z,17.10
2018-04-15T19:02:29.912Z,17.10
2018-04-15T19:05:07.577Z,17.10
2018-04-15T19:07:35.090Z,17.10
2018-04-15T19:10:02.635Z,17.10
2018-04-15T19:12:30.281Z,17.10
2018-04-15T19:14:58.609Z,17.00
2018-04-15T19:17:26.103Z,17.00
2018-04-15T19:19:54.373Z,17.00
2018-04-15T19:22:22.650Z,16.90
2018-04-15T19:24:50.943Z,16.80
2018-04-15T19:27:18.449Z,16.80
2018-04-15T19:29:46.133Z,16.80
2018-04-15T19:32:13.706Z,16.80
2018-04-15T19:34:41.980Z,16.80
2018-04-15T19:37:10.271Z,16.70
2018-04-15T19:39:37.792Z,16.60
2018-04-15T19:42:05.447Z,16.70
2018-04-15T19:44:32.889Z,16.60
2018-04-15T19:47:00.388Z,16.70
2018-04-15T19:49:28.822Z,16.70
2018-04-15T19:51:56.342Z,16.70
2018-04-15T19:54:23.881Z,16.60
2018-04-15T19:56:52.262Z,16.50
2018-04-15T19:59:19.767Z,16.50
2018-04-15T20:01:47.366Z,16.50
2018-04-15T20:04:15.680Z,16.40
2018-04-15T20:06:43.209Z,16.40
2018-04-15T20:09:10.718Z,16.50
2018-04-15T20:11:38.205Z,16.50
2018-04-15T20:14:06.538Z,16.50
2018-04-15T20:16:34.021Z,16.40
2018-04-15T20:19:01.531Z,16.20
2018-04-15T20:21:29.032Z,16.30
2018-04-15T20:23:56.556Z,16.40
2018-04-15T20:26:24.034Z,16.40
2018-04-15T20:28:51.535Z,16.40
2018-04-15T20:31:19.038Z,16.30
2018-04-15T20:33:46.525Z,16.20
2018-04-15T20:36:14.016Z,16.20
2018-04-15T20:38:41.562Z,16.20
2018-04-15T20:41:09.066Z,16.20
2018-04-15T20:43:36.563Z,16.10
2018-04-15T20:46:04.845Z,16.10
2018-04-15T20:48:32.337Z,16.00
2018-04-15T20:50:59.866Z,16.10
2018-04-15T20:53:27.367Z,16.10
2018-04-15T20:55:54.857Z,16.10
2018-04-15T20:58:23.118Z,15.90
2018-04-15T21:00:50.621Z,15.90
2018-04-15T21:03:18.118Z,15.90
2018-04-15T21:05:45.602Z,15.90
2018-04-15T21:08:13.884Z,15.90
2018-04-15T21:10:42.178Z,15.90
2018-04-15T21:13:09.677Z,15.80
2018-04-15T21:15:37.172Z,15.80
2018-04-15T21:18:05.550Z,15.80
2018-04-15T21:20:33.802Z,15.80
2018-04-15T21:23:01.298Z,15.80
2018-04-15T21:25:28.859Z,15.80
2018-04-15T21:27:57.088Z,15.60
2018-04-15T21:30:24.611Z,15.60
2018-04-15T21:32:52.114Z,15.60
2018-04-15T21:35:20.414Z,15.70
2018-04-15T21:37:47.923Z,15.60
2018-04-15T21:40:15.418Z,15.70
2018-04-15T21:42:43.804Z,15.60
2018-04-15T21:45:11.302Z,15.50
2018-04-15T21:47:38.802Z,15.70
2018-04-15T21:50:07.070Z,15.60
2018-04-15T21:52:35.352Z,15.50
2018-04-15T21:55:03.601Z,15.60
2018-04-15T21:57:31.185Z,15.50
2018-04-15T21:59:59.464Z,15.40
2018-04-15T22:02:27.727Z,15.40
2018-04-15T22:04:56.000Z,15.30
2018-04-15T22:07:24.280Z,15.30
2018-04-15T22:09:52.550Z,15.30
2018-04-15T22:12:20.819Z,15.30
2018-04-15T22:14:48.419Z,15.30
2018-04-15T22:17:15.927Z,15.30
2018-04-15T22:19:43.517Z,15.20
2018-04-15T22:22:11.034Z,15.30
2018-04-15T22:24:38.547Z,15.30
2018-04-15T22:27:06.048Z,15.30
2018-04-15T22:29:33.562Z,15.20
2018-04-15T22:32:01.107Z,15.20
2018-04-15T22:34:28.655Z,15.20
2018-04-15T22:36:56.927Z,15.20
2018-04-15T22:39:24.434Z,15.10
2018-04-15T22:41:52.048Z,15.30
2018-04-15T22:44:19.607Z,15.20
2018-04-15T22:46:47.099Z,15.20
2018-04-15T22:49:20.346Z,15.20
2018-04-15T22:51:48.602Z,15.10
2018-04-15T22:54:16.191Z,15.10
2018-04-15T22:56:43.705Z,15.10
2018-04-15T22:59:11.198Z,15.10
2018-04-15T23:01:38.764Z,15.10
2018-04-15T23:04:06.275Z,15.10
2018-04-15T23:06:33.805Z,15.00
2018-04-15T23:09:01.300Z,15.00
2018-04-15T23:11:29.568Z,15.00
2018-04-15T23:13:57.153Z,15.00
2018-04-15T23:16:25.425Z,15.00
2018-04-15T23:18:53.710Z,14.90
2018-04-15T23:21:21.195Z,14.90
2018-04-15T23:23:48.741Z,14.90
2018-04-15T23:26:16.239Z,14.90
2018-04-15T23:28:43.749Z,14.90
2018-04-15T23:31:11.254Z,14.90
2018-04-15T23:33:38.800Z,14.80
2018-04-15T23:36:06.399Z,14.80
2018-04-15T23:38:34.670Z,14.90
2018-04-15T23:41:02.958Z,14.90
2018-04-15T23:43:30.451Z,14.80
2018-04-15T23:45:57.962Z,14.90
2018-04-15T23:48:26.243Z,14.80
2018-04-15T23:50:54.498Z,14.90
2018-04-15T23:53:22.774Z,14.80
2018-04-15T23:55:51.045Z,14.80
2018-04-15T23:58:19.319Z,14.80
